sensor_id;sensor_type;location;lat;lon;timestamp;temperature;humidity
38428;DHT22;24211;49.980;19.776;2023-04-06T00:01:21;3.60;99.90
38428;DHT22;24211;49.980;19.776;2023-04-06T00:03:49;3.70;99.90
38428;DHT22;24211;49.980;19.776;2023-04-06T00:06:17;3.90;99.90
38428;DHT22;24211;49.980;19.776;2023-04-06T00:08:44;3.90;99.90
38428;DHT22;24211;49.980;19.776;2023-04-06T00:11:11;3.90;99.90
38428;DHT22;24211;49.980;19.776;2023-04-06T00:13:38;3.90;99.90
38428;DHT22;24211;49.980;19.776;2023-04-06T00:16:06;3.70;99.90
38428;DHT22;24211;49.980;19.776;2023-04-06T00:18:33;3.50;99.90
38428;DHT22;24211;49.980;19.776;2023-04-06T00:21:03;2.90;99.90
38428;DHT22;24211;49.980;19.776;2023-04-06T00:23:30;2.90;99.90
38428;DHT22;24211;49.980;19.776;2023-04-06T00:25:58;2.80;99.90
38428;DHT22;24211;49.980;19.776;2023-04-06T00:28:25;2.70;99.90
38428;DHT22;24211;49.980;19.776;2023-04-06T00:30:53;2.80;99.90
38428;DHT22;24211;49.980;19.776;2023-04-06T00:33:22;3.20;99.90
38428;DHT22;24211;49.980;19.776;2023-04-06T00:35:50;3.40;99.90
38428;DHT22;24211;49.980;19.776;2023-04-06T00:38:19;3.70;99.90
38428;DHT22;24211;49.980;19.776;2023-04-06T00:40:46;3.80;99.90
38428;DHT22;24211;49.980;19.776;2023-04-06T00:43:14;3.90;99.90
38428;DHT22;24211;49.980;19.776;2023-04-06T00:45:42;4.00;99.90
38428;DHT22;24211;49.980;19.776;2023-04-06T00:48:10;4.00;99.90
38428;DHT22;24211;49.980;19.776;2023-04-06T00:50:39;4.00;99.90
38428;DHT22;24211;49.980;19.776;2023-04-06T00:53:06;4.10;99.90
38428;DHT22;24211;49.980;19.776;2023-04-06T00:55:33;4.10;99.90
38428;DHT22;24211;49.980;19.776;2023-04-06T00:58:03;4.10;99.90
38428;DHT22;24211;49.980;19.776;2023-04-06T01:00:41;4.10;99.90
38428;DHT22;24211;49.980;19.776;2023-04-06T01:03:13;4.10;99.90
38428;DHT22;24211;49.980;19.776;2023-04-06T01:05:43;4.10;99.90
38428;DHT22;24211;49.980;19.776;2023-04-06T01:08:18;4.10;99.90
38428;DHT22;24211;49.980;19.776;2023-04-06T01:10:46;4.10;99.90
38428;DHT22;24211;49.980;19.776;2023-04-06T01:13:28;4.10;99.90
38428;DHT22;24211;49.980;19.776;2023-04-06T01:16:00;4.10;99.90
38428;DHT22;24211;49.980;19.776;2023-04-06T01:18:43;4.00;99.90
38428;DHT22;24211;49.980;19.776;2023-04-06T01:21:15;4.10;99.90
38428;DHT22;24211;49.980;19.776;2023-04-06T01:24:01;4.10;99.90
38428;DHT22;24211;49.980;19.776;2023-04-06T01:26:40;4.00;99.90
38428;DHT22;24211;49.980;19.776;2023-04-06T01:29:09;4.00;99.90
38428;DHT22;24211;49.980;19.776;2023-04-06T01:31:37;4.00;99.90
38428;DHT22;24211;49.980;19.776;2023-04-06T01:34:05;4.00;99.90
38428;DHT22;24211;49.980;19.776;2023-04-06T01:36:33;4.00;99.90
38428;DHT22;24211;49.980;19.776;2023-04-06T01:39:14;4.00;99.90
38428;DHT22;24211;49.980;19.776;2023-04-06T01:41:42;4.00;99.90
38428;DHT22;24211;49.980;19.776;2023-04-06T01:44:09;4.00;99.90
38428;DHT22;24211;49.980;19.776;2023-04-06T01:46:37;3.90;99.90
38428;DHT22;24211;49.980;19.776;2023-04-06T01:49:05;3.90;99.90
38428;DHT22;24211;49.980;19.776;2023-04-06T01:51:36;3.90;99.90
38428;DHT22;24211;49.980;19.776;2023-04-06T01:54:06;3.90;99.90
38428;DHT22;24211;49.980;19.776;2023-04-06T01:56:52;3.80;99.90
38428;DHT22;24211;49.980;19.776;2023-04-06T01:59:33;3.80;99.90
38428;DHT22;24211;49.980;19.776;2023-04-06T02:02:07;3.80;99.90
38428;DHT22;24211;49.980;19.776;2023-04-06T02:04:37;3.80;99.90
38428;DHT22;24211;49.980;19.776;2023-04-06T02:07:09;3.80;99.90
38428;DHT22;24211;49.980;19.776;2023-04-06T02:09:36;3.70;99.90
38428;DHT22;24211;49.980;19.776;2023-04-06T02:12:09;3.70;99.90
38428;DHT22;24211;49.980;19.776;2023-04-06T02:14:36;3.70;99.90
38428;DHT22;24211;49.980;19.776;2023-04-06T02:17:04;3.60;99.90
38428;DHT22;24211;49.980;19.776;2023-04-06T02:19:32;3.60;99.90
38428;DHT22;24211;49.980;19.776;2023-04-06T02:21:59;3.60;99.90
38428;DHT22;24211;49.980;19.776;2023-04-06T02:24:27;3.50;99.90
38428;DHT22;24211;49.980;19.776;2023-04-06T02:26:54;3.50;99.90
38428;DHT22;24211;49.980;19.776;2023-04-06T02:29:22;3.50;99.90
38428;DHT22;24211;49.980;19.776;2023-04-06T02:31:51;3.50;99.90
38428;DHT22;24211;49.980;19.776;2023-04-06T02:34:19;3.40;99.90
38428;DHT22;24211;49.980;19.776;2023-04-06T02:36:50;3.40;99.90
38428;DHT22;24211;49.980;19.776;2023-04-06T02:39:17;3.40;99.90
38428;DHT22;24211;49.980;19.776;2023-04-06T02:41:45;3.40;99.90
38428;DHT22;24211;49.980;19.776;2023-04-06T02:44:18;3.40;99.90
38428;DHT22;24211;49.980;19.776;2023-04-06T02:46:47;3.30;99.90
38428;DHT22;24211;49.980;19.776;2023-04-06T02:49:14;3.30;99.90
38428;DHT22;24211;49.980;19.776;2023-04-06T02:51:41;3.30;99.90
38428;DHT22;24211;49.980;19.776;2023-04-06T02:54:30;3.30;99.90
38428;DHT22;24211;49.980;19.776;2023-04-06T02:56:59;3.20;99.90
38428;DHT22;24211;49.980;19.776;2023-04-06T02:59:36;3.20;99.90
38428;DHT22;24211;49.980;19.776;2023-04-06T03:02:27;3.20;99.90
38428;DHT22;24211;49.980;19.776;2023-04-06T03:05:04;3.10;99.90
38428;DHT22;24211;49.980;19.776;2023-04-06T03:07:37;3.10;99.90
38428;DHT22;24211;49.980;19.776;2023-04-06T03:10:08;3.10;99.90
38428;DHT22;24211;49.980;19.776;2023-04-06T03:12:37;3.10;99.90
38428;DHT22;24211;49.980;19.776;2023-04-06T03:15:10;3.10;99.90
38428;DHT22;24211;49.980;19.776;2023-04-06T03:17:42;3.00;99.90
38428;DHT22;24211;49.980;19.776;2023-04-06T03:20:17;3.00;99.90
38428;DHT22;24211;49.980;19.776;2023-04-06T03:22:45;2.90;99.90
38428;DHT22;24211;49.980;19.776;2023-04-06T03:25:15;3.00;99.90
38428;DHT22;24211;49.980;19.776;2023-04-06T03:27:44;3.00;99.90
38428;DHT22;24211;49.980;19.776;2023-04-06T03:30:15;2.90;99.90
38428;DHT22;24211;49.980;19.776;2023-04-06T03:32:44;2.90;99.90
38428;DHT22;24211;49.980;19.776;2023-04-06T03:35:11;2.90;99.90
38428;DHT22;24211;49.980;19.776;2023-04-06T03:37:39;2.90;99.90
38428;DHT22;24211;49.980;19.776;2023-04-06T03:40:07;2.90;99.90
38428;DHT22;24211;49.980;19.776;2023-04-06T03:42:35;2.80;99.90
38428;DHT22;24211;49.980;19.776;2023-04-06T03:45:08;2.80;99.90
38428;DHT22;24211;49.980;19.776;2023-04-06T03:47:43;2.70;99.90
38428;DHT22;24211;49.980;19.776;2023-04-06T03:50:11;2.70;99.90
38428;DHT22;24211;49.980;19.776;2023-04-06T03:52:39;2.70;99.90
38428;DHT22;24211;49.980;19.776;2023-04-06T03:55:07;2.70;99.90
38428;DHT22;24211;49.980;19.776;2023-04-06T03:57:36;2.60;99.90
38428;DHT22;24211;49.980;19.776;2023-04-06T04:00:04;2.70;99.90
38428;DHT22;24211;49.980;19.776;2023-04-06T04:02:39;2.60;99.90
38428;DHT22;24211;49.980;19.776;2023-04-06T04:05:07;2.60;99.90
38428;DHT22;24211;49.980;19.776;2023-04-06T04:07:36;2.60;99.90
38428;DHT22;24211;49.980;19.776;2023-04-06T04:10:05;2.60;99.90
38428;DHT22;24211;49.980;19.776;2023-04-06T04:12:33;2.50;99.90
38428;DHT22;24211;49.980;19.776;2023-04-06T04:15:01;2.50;99.90
38428;DHT22;24211;49.980;19.776;2023-04-06T04:17:30;2.50;99.90
38428;DHT22;24211;49.980;19.776;2023-04-06T04:19:57;2.50;99.90
38428;DHT22;24211;49.980;19.776;2023-04-06T04:22:25;2.50;99.90
38428;DHT22;24211;49.980;19.776;2023-04-06T04:24:52;2.50;99.90
38428;DHT22;24211;49.980;19.776;2023-04-06T04:27:20;2.50;99.90
38428;DHT22;24211;49.980;19.776;2023-04-06T04:29:49;2.50;99.90
38428;DHT22;24211;49.980;19.776;2023-04-06T04:32:19;2.50;99.90
38428;DHT22;24211;49.980;19.776;2023-04-06T04:34:48;2.50;99.90
38428;DHT22;24211;49.980;19.776;2023-04-06T04:37:30;2.40;99.90
38428;DHT22;24211;49.980;19.776;2023-04-06T04:39:57;2.50;99.90
38428;DHT22;24211;49.980;19.776;2023-04-06T04:42:25;2.40;99.90
38428;DHT22;24211;49.980;19.776;2023-04-06T04:44:55;2.40;99.90
38428;DHT22;24211;49.980;19.776;2023-04-06T04:47:41;2.40;99.90
38428;DHT22;24211;49.980;19.776;2023-04-06T04:50:11;2.40;99.90
38428;DHT22;24211;49.980;19.776;2023-04-06T04:52:42;2.40;99.90
38428;DHT22;24211;49.980;19.776;2023-04-06T04:55:14;2.40;99.90
38428;DHT22;24211;49.980;19.776;2023-04-06T04:57:46;2.40;99.90
38428;DHT22;24211;49.980;19.776;2023-04-06T05:00:14;2.40;99.90
38428;DHT22;24211;49.980;19.776;2023-04-06T05:02:44;2.40;99.90
38428;DHT22;24211;49.980;19.776;2023-04-06T05:05:15;2.40;99.90
38428;DHT22;24211;49.980;19.776;2023-04-06T05:07:44;2.40;99.90
38428;DHT22;24211;49.980;19.776;2023-04-06T05:10:22;2.40;99.90
38428;DHT22;24211;49.980;19.776;2023-04-06T05:12:57;2.50;99.90
38428;DHT22;24211;49.980;19.776;2023-04-06T05:15:28;2.50;99.90
38428;DHT22;24211;49.980;19.776;2023-04-06T05:18:03;2.50;99.90
38428;DHT22;24211;49.980;19.776;2023-04-06T05:20:33;2.60;99.90
38428;DHT22;24211;49.980;19.776;2023-04-06T05:23:02;2.60;99.90
38428;DHT22;24211;49.980;19.776;2023-04-06T05:25:30;2.60;99.90
38428;DHT22;24211;49.980;19.776;2023-04-06T05:28:07;2.60;99.90
38428;DHT22;24211;49.980;19.776;2023-04-06T05:30:37;2.60;99.90
38428;DHT22;24211;49.980;19.776;2023-04-06T05:33:05;2.60;99.90
38428;DHT22;24211;49.980;19.776;2023-04-06T05:35:45;2.60;99.90
38428;DHT22;24211;49.980;19.776;2023-04-06T05:38:13;2.70;99.90
38428;DHT22;24211;49.980;19.776;2023-04-06T05:40:40;2.70;99.90
38428;DHT22;24211;49.980;19.776;2023-04-06T05:43:13;2.80;99.90
38428;DHT22;24211;49.980;19.776;2023-04-06T05:45:46;2.80;99.90
38428;DHT22;24211;49.980;19.776;2023-04-06T05:48:14;2.90;99.90
38428;DHT22;24211;49.980;19.776;2023-04-06T05:50:41;2.90;99.90
38428;DHT22;24211;49.980;19.776;2023-04-06T05:53:11;3.00;99.90
38428;DHT22;24211;49.980;19.776;2023-04-06T05:55:43;3.00;99.90
38428;DHT22;24211;49.980;19.776;2023-04-06T05:58:15;3.10;99.90
38428;DHT22;24211;49.980;19.776;2023-04-06T06:00:44;3.10;99.90
38428;DHT22;24211;49.980;19.776;2023-04-06T06:03:15;3.20;99.90
38428;DHT22;24211;49.980;19.776;2023-04-06T06:05:48;3.20;99.90
38428;DHT22;24211;49.980;19.776;2023-04-06T06:08:23;3.20;99.90
38428;DHT22;24211;49.980;19.776;2023-04-06T06:10:51;3.30;99.90
38428;DHT22;24211;49.980;19.776;2023-04-06T06:13:22;3.30;99.90
38428;DHT22;24211;49.980;19.776;2023-04-06T06:15:51;3.30;99.90
38428;DHT22;24211;49.980;19.776;2023-04-06T06:18:20;3.30;99.90
38428;DHT22;24211;49.980;19.776;2023-04-06T06:20:50;3.40;99.90
38428;DHT22;24211;49.980;19.776;2023-04-06T06:23:18;3.40;99.90
38428;DHT22;24211;49.980;19.776;2023-04-06T06:25:46;3.40;99.90
38428;DHT22;24211;49.980;19.776;2023-04-06T06:28:17;3.50;99.90
38428;DHT22;24211;49.980;19.776;2023-04-06T06:30:44;3.50;99.90
38428;DHT22;24211;49.980;19.776;2023-04-06T06:33:16;3.50;99.90
38428;DHT22;24211;49.980;19.776;2023-04-06T06:35:43;3.50;99.90
38428;DHT22;24211;49.980;19.776;2023-04-06T06:38:11;3.50;99.90
38428;DHT22;24211;49.980;19.776;2023-04-06T06:40:40;3.50;99.90
38428;DHT22;24211;49.980;19.776;2023-04-06T06:43:07;3.50;99.90
38428;DHT22;24211;49.980;19.776;2023-04-06T06:46:10;3.50;99.90
38428;DHT22;24211;49.980;19.776;2023-04-06T06:48:39;3.60;99.90
38428;DHT22;24211;49.980;19.776;2023-04-06T06:51:06;3.70;99.90
38428;DHT22;24211;49.980;19.776;2023-04-06T06:53:34;3.60;99.90
38428;DHT22;24211;49.980;19.776;2023-04-06T06:56:02;3.60;99.90
38428;DHT22;24211;49.980;19.776;2023-04-06T06:58:30;3.50;99.90
38428;DHT22;24211;49.980;19.776;2023-04-06T07:00:59;3.50;99.90
38428;DHT22;24211;49.980;19.776;2023-04-06T07:03:30;3.50;99.90
38428;DHT22;24211;49.980;19.776;2023-04-06T07:05:59;3.50;99.90
38428;DHT22;24211;49.980;19.776;2023-04-06T07:08:27;3.40;99.90
38428;DHT22;24211;49.980;19.776;2023-04-06T07:10:54;3.50;99.90
38428;DHT22;24211;49.980;19.776;2023-04-06T07:13:24;3.50;99.90
38428;DHT22;24211;49.980;19.776;2023-04-06T07:15:56;3.50;99.90
38428;DHT22;24211;49.980;19.776;2023-04-06T07:18:24;3.60;99.90
38428;DHT22;24211;49.980;19.776;2023-04-06T07:20:51;3.50;99.90
38428;DHT22;24211;49.980;19.776;2023-04-06T07:23:19;3.50;99.90
38428;DHT22;24211;49.980;19.776;2023-04-06T07:25:46;3.50;99.90
38428;DHT22;24211;49.980;19.776;2023-04-06T07:28:14;3.50;99.90
38428;DHT22;24211;49.980;19.776;2023-04-06T07:30:42;3.50;99.90
38428;DHT22;24211;49.980;19.776;2023-04-06T07:33:11;3.50;99.90
38428;DHT22;24211;49.980;19.776;2023-04-06T07:35:40;3.60;99.90
38428;DHT22;24211;49.980;19.776;2023-04-06T07:38:09;3.60;99.90
38428;DHT22;24211;49.980;19.776;2023-04-06T07:40:36;3.70;99.90
38428;DHT22;24211;49.980;19.776;2023-04-06T07:43:04;3.70;99.90
38428;DHT22;24211;49.980;19.776;2023-04-06T07:45:31;3.70;99.90
38428;DHT22;24211;49.980;19.776;2023-04-06T07:48:01;3.70;99.90
38428;DHT22;24211;49.980;19.776;2023-04-06T07:50:30;3.80;99.90
38428;DHT22;24211;49.980;19.776;2023-04-06T07:52:57;3.80;99.90
38428;DHT22;24211;49.980;19.776;2023-04-06T07:55:25;3.80;99.90
38428;DHT22;24211;49.980;19.776;2023-04-06T07:57:52;3.80;99.90
38428;DHT22;24211;49.980;19.776;2023-04-06T08:00:20;3.80;99.90
38428;DHT22;24211;49.980;19.776;2023-04-06T08:02:47;3.90;99.90
38428;DHT22;24211;49.980;19.776;2023-04-06T08:05:15;3.90;99.90
38428;DHT22;24211;49.980;19.776;2023-04-06T08:07:43;4.00;99.90
38428;DHT22;24211;49.980;19.776;2023-04-06T08:10:10;4.00;99.90
38428;DHT22;24211;49.980;19.776;2023-04-06T08:12:38;3.90;99.90
38428;DHT22;24211;49.980;19.776;2023-04-06T08:15:05;3.90;99.90
38428;DHT22;24211;49.980;19.776;2023-04-06T08:17:33;4.00;99.90
38428;DHT22;24211;49.980;19.776;2023-04-06T08:20:01;4.00;99.90
38428;DHT22;24211;49.980;19.776;2023-04-06T08:22:31;4.00;99.90
38428;DHT22;24211;49.980;19.776;2023-04-06T08:24:58;4.10;99.90
38428;DHT22;24211;49.980;19.776;2023-04-06T08:27:26;4.20;99.90
38428;DHT22;24211;49.980;19.776;2023-04-06T08:29:53;4.30;99.90
38428;DHT22;24211;49.980;19.776;2023-04-06T08:32:20;4.40;99.90
38428;DHT22;24211;49.980;19.776;2023-04-06T08:34:48;4.40;99.90
38428;DHT22;24211;49.980;19.776;2023-04-06T08:37:15;4.40;99.90
38428;DHT22;24211;49.980;19.776;2023-04-06T08:39:42;4.40;99.90
38428;DHT22;24211;49.980;19.776;2023-04-06T08:42:18;4.50;99.90
38428;DHT22;24211;49.980;19.776;2023-04-06T08:44:48;4.50;99.90
38428;DHT22;24211;49.980;19.776;2023-04-06T08:47:18;4.70;99.90
38428;DHT22;24211;49.980;19.776;2023-04-06T08:49:51;4.70;99.90
38428;DHT22;24211;49.980;19.776;2023-04-06T08:52:20;4.80;99.90
38428;DHT22;24211;49.980;19.776;2023-04-06T08:54:48;4.90;99.90
38428;DHT22;24211;49.980;19.776;2023-04-06T08:57:16;5.10;99.90
38428;DHT22;24211;49.980;19.776;2023-04-06T08:59:45;5.20;99.90
38428;DHT22;24211;49.980;19.776;2023-04-06T09:02:17;5.40;99.90
38428;DHT22;24211;49.980;19.776;2023-04-06T09:04:48;5.50;99.90
38428;DHT22;24211;49.980;19.776;2023-04-06T09:07:19;5.60;99.90
38428;DHT22;24211;49.980;19.776;2023-04-06T09:09:47;5.70;99.90
38428;DHT22;24211;49.980;19.776;2023-04-06T09:12:25;5.90;99.90
38428;DHT22;24211;49.980;19.776;2023-04-06T09:14:54;5.90;99.90
38428;DHT22;24211;49.980;19.776;2023-04-06T09:17:27;5.90;99.90
38428;DHT22;24211;49.980;19.776;2023-04-06T09:19:57;6.10;99.90
38428;DHT22;24211;49.980;19.776;2023-04-06T09:22:24;6.10;99.90
38428;DHT22;24211;49.980;19.776;2023-04-06T09:24:53;6.20;99.90
38428;DHT22;24211;49.980;19.776;2023-04-06T09:27:32;6.30;99.90
38428;DHT22;24211;49.980;19.776;2023-04-06T09:30:12;6.40;99.90
38428;DHT22;24211;49.980;19.776;2023-04-06T09:32:52;6.30;99.90
38428;DHT22;24211;49.980;19.776;2023-04-06T09:35:20;6.30;99.90
38428;DHT22;24211;49.980;19.776;2023-04-06T09:37:50;6.40;99.90
38428;DHT22;24211;49.980;19.776;2023-04-06T09:40:19;6.30;99.90
38428;DHT22;24211;49.980;19.776;2023-04-06T09:42:50;6.30;99.90
38428;DHT22;24211;49.980;19.776;2023-04-06T09:45:24;6.40;99.90
38428;DHT22;24211;49.980;19.776;2023-04-06T09:47:53;6.50;99.90
38428;DHT22;24211;49.980;19.776;2023-04-06T09:50:24;6.50;99.90
38428;DHT22;24211;49.980;19.776;2023-04-06T09:52:54;6.50;99.90
38428;DHT22;24211;49.980;19.776;2023-04-06T09:55:36;6.50;99.90
38428;DHT22;24211;49.980;19.776;2023-04-06T09:58:13;6.50;99.90
38428;DHT22;24211;49.980;19.776;2023-04-06T10:00:58;6.50;99.90
38428;DHT22;24211;49.980;19.776;2023-04-06T10:06:41;6.60;99.90
38428;DHT22;24211;49.980;19.776;2023-04-06T10:09:08;6.70;99.90
38428;DHT22;24211;49.980;19.776;2023-04-06T10:11:36;6.70;99.90
38428;DHT22;24211;49.980;19.776;2023-04-06T10:14:05;6.70;99.90
38428;DHT22;24211;49.980;19.776;2023-04-06T10:16:34;6.70;99.90
38428;DHT22;24211;49.980;19.776;2023-04-06T10:19:10;6.80;99.90
38428;DHT22;24211;49.980;19.776;2023-04-06T10:21:45;6.80;99.90
38428;DHT22;24211;49.980;19.776;2023-04-06T10:24:17;6.80;99.90
38428;DHT22;24211;49.980;19.776;2023-04-06T10:26:57;6.80;99.90
38428;DHT22;24211;49.980;19.776;2023-04-06T10:29:44;6.90;99.90
38428;DHT22;24211;49.980;19.776;2023-04-06T10:32:13;7.00;99.90
38428;DHT22;24211;49.980;19.776;2023-04-06T10:34:41;7.10;99.90
38428;DHT22;24211;49.980;19.776;2023-04-06T10:37:16;7.20;99.90
38428;DHT22;24211;49.980;19.776;2023-04-06T10:39:52;7.20;99.90
38428;DHT22;24211;49.980;19.776;2023-04-06T10:42:25;7.10;99.90
38428;DHT22;24211;49.980;19.776;2023-04-06T10:45:07;7.00;99.90
38428;DHT22;24211;49.980;19.776;2023-04-06T10:47:45;7.10;99.90
38428;DHT22;24211;49.980;19.776;2023-04-06T10:50:16;7.20;99.90
38428;DHT22;24211;49.980;19.776;2023-04-06T10:52:47;7.10;99.90
38428;DHT22;24211;49.980;19.776;2023-04-06T10:55:29;7.10;99.90
38428;DHT22;24211;49.980;19.776;2023-04-06T10:57:57;6.90;99.90
38428;DHT22;24211;49.980;19.776;2023-04-06T11:00:25;7.00;99.90
38428;DHT22;24211;49.980;19.776;2023-04-06T11:03:09;7.00;99.90
38428;DHT22;24211;49.980;19.776;2023-04-06T11:05:36;7.00;99.90
38428;DHT22;24211;49.980;19.776;2023-04-06T11:08:04;7.10;99.90
38428;DHT22;24211;49.980;19.776;2023-04-06T11:10:31;7.00;99.90
38428;DHT22;24211;49.980;19.776;2023-04-06T11:12:58;7.00;99.90
38428;DHT22;24211;49.980;19.776;2023-04-06T11:15:34;6.80;99.90
38428;DHT22;24211;49.980;19.776;2023-04-06T11:18:05;6.90;99.90
38428;DHT22;24211;49.980;19.776;2023-04-06T11:20:33;7.00;99.90
38428;DHT22;24211;49.980;19.776;2023-04-06T11:23:00;7.10;99.90
38428;DHT22;24211;49.980;19.776;2023-04-06T11:25:29;7.10;99.90
38428;DHT22;24211;49.980;19.776;2023-04-06T11:27:59;7.10;99.90
38428;DHT22;24211;49.980;19.776;2023-04-06T11:30:27;7.10;99.90
38428;DHT22;24211;49.980;19.776;2023-04-06T11:33:00;7.00;99.90
38428;DHT22;24211;49.980;19.776;2023-04-06T11:35:31;7.00;99.90
38428;DHT22;24211;49.980;19.776;2023-04-06T11:38:02;6.90;99.90
38428;DHT22;24211;49.980;19.776;2023-04-06T11:40:31;6.90;99.90
38428;DHT22;24211;49.980;19.776;2023-04-06T11:42:59;6.90;99.90
38428;DHT22;24211;49.980;19.776;2023-04-06T11:45:41;7.00;99.90
38428;DHT22;24211;49.980;19.776;2023-04-06T11:48:18;7.00;99.90
38428;DHT22;24211;49.980;19.776;2023-04-06T11:50:55;7.00;99.90
38428;DHT22;24211;49.980;19.776;2023-04-06T11:53:30;7.00;99.90
38428;DHT22;24211;49.980;19.776;2023-04-06T11:55:58;6.90;99.90
38428;DHT22;24211;49.980;19.776;2023-04-06T11:58:29;6.90;99.90
38428;DHT22;24211;49.980;19.776;2023-04-06T12:01:03;6.80;99.90
38428;DHT22;24211;49.980;19.776;2023-04-06T12:03:31;6.80;99.90
38428;DHT22;24211;49.980;19.776;2023-04-06T12:05:59;6.70;99.90
38428;DHT22;24211;49.980;19.776;2023-04-06T12:08:27;6.70;99.90
38428;DHT22;24211;49.980;19.776;2023-04-06T12:10:54;6.70;99.90
38428;DHT22;24211;49.980;19.776;2023-04-06T12:13:21;6.70;99.90
38428;DHT22;24211;49.980;19.776;2023-04-06T12:15:49;6.50;99.90
38428;DHT22;24211;49.980;19.776;2023-04-06T12:18:17;6.50;99.90
38428;DHT22;24211;49.980;19.776;2023-04-06T12:20:44;6.30;99.90
38428;DHT22;24211;49.980;19.776;2023-04-06T12:23:11;6.20;99.90
38428;DHT22;24211;49.980;19.776;2023-04-06T12:25:40;6.10;99.90
38428;DHT22;24211;49.980;19.776;2023-04-06T12:28:08;6.20;99.90
38428;DHT22;24211;49.980;19.776;2023-04-06T12:30:35;6.00;99.90
38428;DHT22;24211;49.980;19.776;2023-04-06T12:33:03;5.80;99.90
38428;DHT22;24211;49.980;19.776;2023-04-06T12:35:33;5.80;99.90
38428;DHT22;24211;49.980;19.776;2023-04-06T12:38:01;5.80;99.90
38428;DHT22;24211;49.980;19.776;2023-04-06T12:40:28;5.70;99.90
38428;DHT22;24211;49.980;19.776;2023-04-06T12:42:56;5.60;99.90
38428;DHT22;24211;49.980;19.776;2023-04-06T12:45:24;5.70;99.90
38428;DHT22;24211;49.980;19.776;2023-04-06T12:47:51;5.80;99.90
38428;DHT22;24211;49.980;19.776;2023-04-06T12:50:19;5.70;99.90
38428;DHT22;24211;49.980;19.776;2023-04-06T12:52:47;5.80;99.90
38428;DHT22;24211;49.980;19.776;2023-04-06T12:55:15;5.80;99.90
38428;DHT22;24211;49.980;19.776;2023-04-06T12:57:42;5.70;99.90
38428;DHT22;24211;49.980;19.776;2023-04-06T13:00:10;5.50;99.90
38428;DHT22;24211;49.980;19.776;2023-04-06T13:02:38;5.40;99.90
38428;DHT22;24211;49.980;19.776;2023-04-06T13:05:06;5.50;99.90
38428;DHT22;24211;49.980;19.776;2023-04-06T13:07:34;5.40;99.90
38428;DHT22;24211;49.980;19.776;2023-04-06T13:10:01;5.40;99.90
38428;DHT22;24211;49.980;19.776;2023-04-06T13:12:29;5.50;99.90
38428;DHT22;24211;49.980;19.776;2023-04-06T13:14:56;5.50;99.90
38428;DHT22;24211;49.980;19.776;2023-04-06T13:17:23;5.40;99.90
38428;DHT22;24211;49.980;19.776;2023-04-06T13:19:51;5.30;99.90
38428;DHT22;24211;49.980;19.776;2023-04-06T13:22:19;5.40;99.90
38428;DHT22;24211;49.980;19.776;2023-04-06T13:24:47;5.20;99.90
38428;DHT22;24211;49.980;19.776;2023-04-06T13:27:14;5.20;99.90
38428;DHT22;24211;49.980;19.776;2023-04-06T13:29:41;5.00;99.90
38428;DHT22;24211;49.980;19.776;2023-04-06T13:32:09;5.10;99.90
38428;DHT22;24211;49.980;19.776;2023-04-06T13:34:37;5.10;99.90
38428;DHT22;24211;49.980;19.776;2023-04-06T13:37:04;5.10;99.90
38428;DHT22;24211;49.980;19.776;2023-04-06T13:39:32;5.10;99.90
38428;DHT22;24211;49.980;19.776;2023-04-06T13:41:59;5.00;99.90
38428;DHT22;24211;49.980;19.776;2023-04-06T13:44:29;5.00;99.90
38428;DHT22;24211;49.980;19.776;2023-04-06T13:46:56;5.00;99.90
38428;DHT22;24211;49.980;19.776;2023-04-06T13:49:25;5.10;99.90
38428;DHT22;24211;49.980;19.776;2023-04-06T13:51:53;5.00;99.90
38428;DHT22;24211;49.980;19.776;2023-04-06T13:54:20;5.00;99.90
38428;DHT22;24211;49.980;19.776;2023-04-06T13:56:47;5.00;99.90
38428;DHT22;24211;49.980;19.776;2023-04-06T13:59:15;4.90;99.90
38428;DHT22;24211;49.980;19.776;2023-04-06T14:01:42;4.80;99.90
38428;DHT22;24211;49.980;19.776;2023-04-06T14:04:09;4.80;99.90
38428;DHT22;24211;49.980;19.776;2023-04-06T14:06:37;4.90;99.90
38428;DHT22;24211;49.980;19.776;2023-04-06T14:09:04;4.90;99.90
38428;DHT22;24211;49.980;19.776;2023-04-06T14:11:32;4.90;99.90
38428;DHT22;24211;49.980;19.776;2023-04-06T14:13:59;4.90;99.90
38428;DHT22;24211;49.980;19.776;2023-04-06T14:16:31;4.90;99.90
38428;DHT22;24211;49.980;19.776;2023-04-06T14:18:59;4.90;99.90
38428;DHT22;24211;49.980;19.776;2023-04-06T14:21:26;5.00;99.90
38428;DHT22;24211;49.980;19.776;2023-04-06T14:23:53;5.00;99.90
38428;DHT22;24211;49.980;19.776;2023-04-06T14:26:22;5.00;99.90
38428;DHT22;24211;49.980;19.776;2023-04-06T14:28:49;5.00;99.90
38428;DHT22;24211;49.980;19.776;2023-04-06T14:31:17;5.00;99.90
38428;DHT22;24211;49.980;19.776;2023-04-06T14:33:45;5.00;99.90
38428;DHT22;24211;49.980;19.776;2023-04-06T14:36:13;5.10;99.90
38428;DHT22;24211;49.980;19.776;2023-04-06T14:38:40;5.10;99.90
38428;DHT22;24211;49.980;19.776;2023-04-06T14:41:08;5.10;99.90
38428;DHT22;24211;49.980;19.776;2023-04-06T14:43:42;5.00;99.90
38428;DHT22;24211;49.980;19.776;2023-04-06T14:46:10;5.10;99.90
38428;DHT22;24211;49.980;19.776;2023-04-06T14:48:37;5.00;99.90
38428;DHT22;24211;49.980;19.776;2023-04-06T14:51:04;5.00;99.90
38428;DHT22;24211;49.980;19.776;2023-04-06T14:53:32;5.00;99.90
38428;DHT22;24211;49.980;19.776;2023-04-06T14:56:00;5.00;99.90
38428;DHT22;24211;49.980;19.776;2023-04-06T14:58:30;5.00;99.90
38428;DHT22;24211;49.980;19.776;2023-04-06T15:00:59;4.90;99.90
38428;DHT22;24211;49.980;19.776;2023-04-06T15:03:29;5.00;99.90
38428;DHT22;24211;49.980;19.776;2023-04-06T15:05:57;5.00;99.90
38428;DHT22;24211;49.980;19.776;2023-04-06T15:08:24;5.00;99.90
38428;DHT22;24211;49.980;19.776;2023-04-06T15:10:52;5.00;99.90
38428;DHT22;24211;49.980;19.776;2023-04-06T15:13:21;4.90;99.90
38428;DHT22;24211;49.980;19.776;2023-04-06T15:15:50;4.90;99.90
38428;DHT22;24211;49.980;19.776;2023-04-06T15:18:18;4.90;99.90
38428;DHT22;24211;49.980;19.776;2023-04-06T15:20:46;4.90;99.90
38428;DHT22;24211;49.980;19.776;2023-04-06T15:23:14;4.80;99.90
38428;DHT22;24211;49.980;19.776;2023-04-06T15:25:41;4.80;99.90
38428;DHT22;24211;49.980;19.776;2023-04-06T15:28:09;4.80;99.90
38428;DHT22;24211;49.980;19.776;2023-04-06T15:30:36;4.70;99.90
38428;DHT22;24211;49.980;19.776;2023-04-06T15:33:07;4.70;99.90
38428;DHT22;24211;49.980;19.776;2023-04-06T15:35:35;4.70;99.90
38428;DHT22;24211;49.980;19.776;2023-04-06T15:38:09;4.60;99.90
38428;DHT22;24211;49.980;19.776;2023-04-06T15:40:46;4.60;99.90
38428;DHT22;24211;49.980;19.776;2023-04-06T15:43:15;4.60;99.90
38428;DHT22;24211;49.980;19.776;2023-04-06T15:45:42;4.60;99.90
38428;DHT22;24211;49.980;19.776;2023-04-06T15:48:10;4.60;99.90
38428;DHT22;24211;49.980;19.776;2023-04-06T15:50:37;4.60;99.90